Time;durP1;ratioP1;P1;durP2;ratioP2;P2;SDS_P1;SDS_P2;PMS_P1;PMS_P2;Temp;Humidity;BMP_temperature;BMP_pressure;BME280_temperature;BME280_humidity;BME280_pressure;Samples;Min_cycle;Max_cycle;Signal;HPM_P1;HPM_P2
2021/10/11 00:00:49;;;;;;;;;;;15.00;99.90;;;;;;2086923;28;1452;-55
2021/10/11 00:02:08;;;;;;;;;;;15.00;99.90;;;;;;2095142;28;995;-56
2021/10/11 00:03:27;;;;;;;;;;;15.00;99.90;;;;;;2095038;28;1112;-57
2021/10/11 00:04:47;;;;;;;;;;;15.00;99.90;;;;;;2096856;28;1409;-57
2021/10/11 00:06:06;;;;;;;;;;;15.00;99.90;;;;;;2090761;28;1391;-57
2021/10/11 00:07:25;;;;;;;;;;;14.90;99.90;;;;;;2097482;28;1475;-57
2021/10/11 00:08:44;;;;;;;;;;;14.90;99.90;;;;;;2097768;28;1402;-57
2021/10/11 00:10:04;;;;;;;;;;;14.90;99.90;;;;;;2089052;28;722;-56
2021/10/11 00:11:24;;;;;;;;;;;14.90;99.90;;;;;;2088807;28;737;-57
2021/10/11 00:12:43;;;;;;;;;;;14.90;99.90;;;;;;2085551;28;735;-56
2021/10/11 00:14:02;;;;;;;;;;;14.90;99.90;;;;;;2097420;28;1141;-56
2021/10/11 00:15:22;;;;;;;;;;;14.90;99.90;;;;;;2097698;28;1456;-57
2021/10/11 00:16:41;;;;;;;;;;;14.90;99.90;;;;;;2096332;28;792;-55
2021/10/11 00:18:01;;;;;;;;;;;14.90;99.90;;;;;;2097424;28;891;-56
2021/10/11 00:19:20;;;;;;;;;;;14.90;99.90;;;;;;2097947;28;1032;-57
2021/10/11 00:20:39;;;;;;;;;;;14.90;99.90;;;;;;2097769;28;1459;-57
2021/10/11 00:21:58;;;;;;;;;;;14.90;99.90;;;;;;2097828;28;712;-56
2021/10/11 00:23:18;;;;;;;;;;;14.90;99.90;;;;;;2097690;28;719;-53
2021/10/11 00:24:37;;;;;;;;;;;14.90;99.90;;;;;;2094260;28;1451;-57
2021/10/11 00:25:56;;;;;;;;;;;14.90;99.90;;;;;;2093543;28;733;-55
2021/10/11 00:27:17;;;;;;;;;;;14.90;99.90;;;;;;2097283;28;733;-55
2021/10/11 00:28:36;;;;;;;;;;;14.90;99.90;;;;;;2097002;28;728;-56
2021/10/11 00:29:55;;;;;;;;;;;14.90;99.90;;;;;;2094021;28;714;-55
2021/10/11 00:31:14;;;;;;;;;;;14.90;99.90;;;;;;2095764;28;841;-56
2021/10/11 00:32:34;;;;;;;;;;;14.90;99.90;;;;;;2095595;28;991;-56
2021/10/11 00:33:53;;;;;;;;;;;14.90;99.90;;;;;;2085396;28;721;-55
2021/10/11 00:35:12;;;;;;;;;;;14.90;99.90;;;;;;2085378;28;730;-56
2021/10/11 00:36:32;;;;;;;;;;;14.90;99.90;;;;;;2088574;28;722;-56
2021/10/11 00:37:51;;;;;;;;;;;14.90;99.90;;;;;;2089142;28;734;-57
2021/10/11 00:39:10;;;;;;;;;;;14.90;99.90;;;;;;2089223;28;713;-57
2021/10/11 00:40:29;;;;;;;;;;;14.90;99.90;;;;;;2089051;28;1356;-56
2021/10/11 00:41:48;;;;;;;;;;;14.90;99.90;;;;;;2089223;28;706;-55
2021/10/11 00:43:08;;;;;;;;;;;14.90;99.90;;;;;;2089612;28;1025;-56
2021/10/11 00:44:27;;;;;;;;;;;14.90;99.90;;;;;;2090759;28;719;-56
2021/10/11 00:45:46;;;;;;;;;;;14.90;99.90;;;;;;2090558;28;737;-55
2021/10/11 00:47:05;;;;;;;;;;;14.90;99.90;;;;;;2090559;28;708;-56
2021/10/11 00:48:24;;;;;;;;;;;14.90;99.90;;;;;;2090074;28;773;-53
2021/10/11 00:49:43;;;;;;;;;;;14.90;99.90;;;;;;2090501;28;775;-56
2021/10/11 00:51:03;;;;;;;;;;;14.90;99.90;;;;;;2089139;28;1389;-56
2021/10/11 00:52:22;;;;;;;;;;;14.90;99.90;;;;;;2090805;28;775;-54
2021/10/11 00:53:41;;;;;;;;;;;14.90;99.90;;;;;;2091424;28;1793;-55
2021/10/11 00:55:00;;;;;;;;;;;14.90;99.90;;;;;;2098910;28;1113;-55
2021/10/11 00:56:19;;;;;;;;;;;14.90;99.90;;;;;;2094855;28;1227;-56
2021/10/11 00:57:39;;;;;;;;;;;14.90;99.90;;;;;;2098192;28;1579;-55
2021/10/11 00:58:58;;;;;;;;;;;14.80;99.90;;;;;;2094921;28;1000;-57
2021/10/11 01:00:17;;;;;;;;;;;14.90;99.90;;;;;;2098125;28;1975;-57
2021/10/11 01:01:36;;;;;;;;;;;14.90;99.90;;;;;;2093246;28;1035;-54
2021/10/11 01:02:55;;;;;;;;;;;14.90;99.90;;;;;;2091286;28;877;-56
2021/10/11 01:04:14;;;;;;;;;;;14.80;99.90;;;;;;2098467;28;601;-56
2021/10/11 01:05:34;;;;;;;;;;;14.90;99.90;;;;;;2098653;28;1075;-57
2021/10/11 01:06:53;;;;;;;;;;;14.90;99.90;;;;;;2097522;28;1354;-55
2021/10/11 01:08:12;;;;;;;;;;;14.90;99.90;;;;;;2094849;28;748;-56
2021/10/11 01:09:31;;;;;;;;;;;14.90;99.90;;;;;;2094855;28;726;-56
2021/10/11 01:10:51;;;;;;;;;;;14.80;99.90;;;;;;2098233;28;1288;-55
2021/10/11 01:12:10;;;;;;;;;;;14.80;99.90;;;;;;2098498;28;694;-57
2021/10/11 01:13:29;;;;;;;;;;;14.80;99.90;;;;;;2098189;28;788;-56
2021/10/11 01:14:49;;;;;;;;;;;14.80;99.90;;;;;;2095164;28;1052;-56
2021/10/11 01:16:08;;;;;;;;;;;14.80;99.90;;;;;;2092001;28;888;-57
2021/10/11 01:17:27;;;;;;;;;;;14.80;99.90;;;;;;2094720;28;1044;-57
2021/10/11 01:18:47;;;;;;;;;;;14.80;99.90;;;;;;2098728;28;1006;-55
2021/10/11 01:20:06;;;;;;;;;;;14.80;99.90;;;;;;2089658;28;1984;-56
2021/10/11 01:21:26;;;;;;;;;;;14.80;99.90;;;;;;2083504;28;756;-56
2021/10/11 01:22:45;;;;;;;;;;;14.80;99.90;;;;;;2091487;28;769;-55
2021/10/11 01:24:04;;;;;;;;;;;14.80;99.90;;;;;;2098169;28;732;-53
2021/10/11 01:25:23;;;;;;;;;;;14.80;99.90;;;;;;2098615;28;701;-55
2021/10/11 01:26:43;;;;;;;;;;;14.80;99.90;;;;;;2097896;28;765;-56
2021/10/11 01:28:03;;;;;;;;;;;14.80;99.90;;;;;;2098692;28;776;-56
2021/10/11 01:29:23;;;;;;;;;;;14.80;99.90;;;;;;2098729;28;780;-56
2021/10/11 01:30:42;;;;;;;;;;;14.80;99.90;;;;;;2098512;28;1336;-55
2021/10/11 01:32:01;;;;;;;;;;;14.80;99.90;;;;;;2094219;28;885;-54
2021/10/11 01:33:20;;;;;;;;;;;14.80;99.90;;;;;;2102688;28;1020;-57
2021/10/11 01:34:39;;;;;;;;;;;14.80;99.90;;;;;;2097803;28;1038;-57
2021/10/11 01:35:59;;;;;;;;;;;14.80;99.90;;;;;;2097664;28;732;-58
2021/10/11 01:37:18;;;;;;;;;;;14.80;99.90;;;;;;2093293;28;1730;-56
2021/10/11 01:38:37;;;;;;;;;;;14.80;99.90;;;;;;2096169;28;1094;-56
2021/10/11 01:39:56;;;;;;;;;;;14.80;99.90;;;;;;2091076;28;1975;-56
2021/10/11 01:41:15;;;;;;;;;;;14.80;99.90;;;;;;2096791;28;702;-57
2021/10/11 01:42:34;;;;;;;;;;;14.80;99.90;;;;;;2098205;28;744;-57
2021/10/11 01:43:54;;;;;;;;;;;14.80;99.90;;;;;;2094221;28;1461;-56
2021/10/11 01:45:13;;;;;;;;;;;14.80;99.90;;;;;;2091669;28;1584;-56
2021/10/11 01:46:32;;;;;;;;;;;14.80;99.90;;;;;;2093859;28;1006;-56
2021/10/11 01:47:52;;;;;;;;;;;14.80;99.90;;;;;;2096916;28;880;-55
2021/10/11 01:49:11;;;;;;;;;;;14.80;99.90;;;;;;2094809;28;996;-56
2021/10/11 01:50:31;;;;;;;;;;;14.80;99.90;;;;;;2096472;28;1763;-56
2021/10/11 01:51:50;;;;;;;;;;;14.80;99.90;;;;;;2089959;28;1732;-57
2021/10/11 01:53:09;;;;;;;;;;;14.80;99.90;;;;;;2086840;28;1686;-56
2021/10/11 01:54:28;;;;;;;;;;;14.80;99.90;;;;;;2091693;28;1679;-56
2021/10/11 01:55:47;;;;;;;;;;;14.80;99.90;;;;;;2091512;28;1174;-57
2021/10/11 01:57:07;;;;;;;;;;;14.80;99.90;;;;;;2091203;28;1152;-56
2021/10/11 01:58:26;;;;;;;;;;;14.80;99.90;;;;;;2091685;28;1303;-57
2021/10/11 01:59:45;;;;;;;;;;;14.80;99.90;;;;;;2090887;28;1902;-57
2021/10/11 02:01:04;;;;;;;;;;;14.80;99.90;;;;;;2093644;28;1424;-55
2021/10/11 02:02:24;;;;;;;;;;;14.80;99.90;;;;;;2092604;28;882;-57
2021/10/11 02:03:43;;;;;;;;;;;14.80;99.90;;;;;;2091248;28;1157;-57
2021/10/11 02:05:03;;;;;;;;;;;14.80;99.90;;;;;;2088864;28;1160;-55
2021/10/11 02:06:22;;;;;;;;;;;14.80;99.90;;;;;;2085224;28;1164;-57
2021/10/11 02:07:42;;;;;;;;;;;14.80;99.90;;;;;;2091314;28;1331;-57
2021/10/11 02:09:01;;;;;;;;;;;14.80;99.90;;;;;;2089605;28;1272;-57
2021/10/11 02:10:20;;;;;;;;;;;14.80;99.90;;;;;;2089966;28;1413;-56
2021/10/11 02:11:39;;;;;;;;;;;14.80;99.90;;;;;;2089738;28;1479;-57
2021/10/11 02:12:58;;;;;;;;;;;14.70;99.90;;;;;;2090334;28;1116;-57
2021/10/11 02:14:18;;;;;;;;;;;14.80;99.90;;;;;;2085601;28;1381;-56
2021/10/11 02:15:37;;;;;;;;;;;14.80;99.90;;;;;;2087224;28;1246;-56
2021/10/11 02:16:58;;;;;;;;;;;14.80;99.90;;;;;;2088191;28;1499;-55
2021/10/11 02:18:17;;;;;;;;;;;14.80;99.90;;;;;;2089269;28;1323;-56
2021/10/11 02:19:36;;;;;;;;;;;14.80;99.90;;;;;;2091866;28;1902;-56
2021/10/11 02:20:55;;;;;;;;;;;14.80;99.90;;;;;;2090363;28;1385;-57
2021/10/11 02:22:15;;;;;;;;;;;14.70;99.90;;;;;;2090690;28;1130;-57
2021/10/11 02:23:34;;;;;;;;;;;14.70;99.90;;;;;;2091466;28;1236;-55
2021/10/11 02:24:53;;;;;;;;;;;14.70;99.90;;;;;;2091153;28;1054;-55
2021/10/11 02:26:12;;;;;;;;;;;14.70;99.90;;;;;;2090930;28;1117;-56
2021/10/11 02:27:31;;;;;;;;;;;14.80;99.90;;;;;;2089742;28;1106;-55
2021/10/11 02:28:51;;;;;;;;;;;14.70;99.90;;;;;;2090902;28;1372;-56
2021/10/11 02:30:10;;;;;;;;;;;14.70;99.90;;;;;;2084606;28;1138;-56
2021/10/11 02:31:29;;;;;;;;;;;14.70;99.90;;;;;;2090060;28;1103;-56
2021/10/11 02:32:48;;;;;;;;;;;14.70;99.90;;;;;;2096450;28;1097;-57
2021/10/11 02:34:07;;;;;;;;;;;14.70;99.90;;;;;;2089280;28;1043;-56
2021/10/11 02:35:27;;;;;;;;;;;14.70;99.90;;;;;;2089739;28;1411;-57
2021/10/11 02:36:46;;;;;;;;;;;14.70;99.90;;;;;;2091466;28;1220;-55
2021/10/11 02:38:05;;;;;;;;;;;14.70;99.90;;;;;;2092967;28;1108;-55
2021/10/11 02:39:24;;;;;;;;;;;14.70;99.90;;;;;;2091648;28;1360;-53
2021/10/11 02:40:44;;;;;;;;;;;14.70;99.90;;;;;;2091781;28;1425;-56
2021/10/11 02:42:03;;;;;;;;;;;14.70;99.90;;;;;;2091063;28;1089;-54
2021/10/11 02:43:22;;;;;;;;;;;14.70;99.90;;;;;;2092060;28;1096;-56
2021/10/11 02:44:42;;;;;;;;;;;14.70;99.90;;;;;;2092366;28;1523;-55
2021/10/11 02:46:01;;;;;;;;;;;14.70;99.90;;;;;;2088983;28;1395;-56
2021/10/11 02:47:21;;;;;;;;;;;14.70;99.90;;;;;;2091366;28;1225;-56
2021/10/11 02:48:40;;;;;;;;;;;14.70;99.90;;;;;;2092353;28;1007;-56
2021/10/11 02:50:02;;;;;;;;;;;14.70;99.90;;;;;;2089289;28;1222;-56
2021/10/11 02:51:23;;;;;;;;;;;14.70;99.90;;;;;;2092463;28;1253;-57
2021/10/11 02:52:42;;;;;;;;;;;14.70;99.90;;;;;;2093005;28;1359;-55
2021/10/11 02:54:01;;;;;;;;;;;14.70;99.90;;;;;;2090385;28;1607;-55
2021/10/11 02:55:20;;;;;;;;;;;14.70;99.90;;;;;;2090449;28;1150;-56
2021/10/11 02:56:39;;;;;;;;;;;14.70;99.90;;;;;;2089690;28;990;-56
2021/10/11 02:57:59;;;;;;;;;;;14.70;99.90;;;;;;2091277;28;1261;-56
2021/10/11 02:59:18;;;;;;;;;;;14.70;99.90;;;;;;2092317;28;1342;-57
2021/10/11 03:00:37;;;;;;;;;;;14.70;99.90;;;;;;2092243;28;2253;-58
2021/10/11 03:01:56;;;;;;;;;;;14.70;99.90;;;;;;2092094;28;1273;-54
2021/10/11 03:03:15;;;;;;;;;;;14.70;99.90;;;;;;2092509;28;1413;-56
2021/10/11 03:04:35;;;;;;;;;;;14.70;99.90;;;;;;2090495;28;1033;-56
2021/10/11 03:05:54;;;;;;;;;;;14.70;99.90;;;;;;2088784;28;1252;-57
2021/10/11 03:07:14;;;;;;;;;;;14.70;99.90;;;;;;2090657;28;1623;-56
2021/10/11 03:08:33;;;;;;;;;;;14.70;99.90;;;;;;2091756;28;1230;-56
2021/10/11 03:09:52;;;;;;;;;;;14.70;99.90;;;;;;2082340;28;1171;-55
2021/10/11 03:11:11;;;;;;;;;;;14.60;99.90;;;;;;2088255;28;1346;-57
2021/10/11 03:12:31;;;;;;;;;;;14.70;99.90;;;;;;2093573;28;1199;-55
2021/10/11 03:13:50;;;;;;;;;;;14.70;99.90;;;;;;2089860;28;1374;-55
2021/10/11 03:15:09;;;;;;;;;;;14.70;99.90;;;;;;2092006;28;1405;-56
2021/10/11 03:16:28;;;;;;;;;;;14.70;99.90;;;;;;2091698;28;1152;-56
2021/10/11 03:17:47;;;;;;;;;;;14.60;99.90;;;;;;2092033;28;1246;-57
2021/10/11 03:19:06;;;;;;;;;;;14.70;99.90;;;;;;2091502;28;1403;-57
2021/10/11 03:20:26;;;;;;;;;;;14.70;99.90;;;;;;2095360;28;1974;-56
2021/10/11 03:21:45;;;;;;;;;;;14.70;99.90;;;;;;2087824;28;1104;-55
2021/10/11 03:23:04;;;;;;;;;;;14.70;99.90;;;;;;2092933;28;1197;-56
2021/10/11 03:24:23;;;;;;;;;;;14.70;99.90;;;;;;2095292;28;1169;-56
2021/10/11 03:25:43;;;;;;;;;;;14.70;99.90;;;;;;2086398;28;1197;-56
2021/10/11 03:27:02;;;;;;;;;;;14.70;99.90;;;;;;2092348;28;1177;-56
2021/10/11 03:28:21;;;;;;;;;;;14.70;99.90;;;;;;2094416;28;1350;-54
2021/10/11 03:29:40;;;;;;;;;;;14.70;99.90;;;;;;2092834;28;1336;-58
2021/10/11 03:31:00;;;;;;;;;;;14.60;99.90;;;;;;2091619;28;1357;-56
2021/10/11 03:32:19;;;;;;;;;;;14.70;99.90;;;;;;2091028;28;1103;-57
2021/10/11 03:33:38;;;;;;;;;;;14.70;99.90;;;;;;2093293;28;1088;-55
2021/10/11 03:34:57;;;;;;;;;;;14.70;99.90;;;;;;2096305;28;1036;-59
2021/10/11 03:36:16;;;;;;;;;;;14.70;99.90;;;;;;2093696;28;1099;-58
2021/10/11 03:37:35;;;;;;;;;;;14.70;99.90;;;;;;2090870;28;1429;-57
2021/10/11 03:38:55;;;;;;;;;;;14.70;99.90;;;;;;2089625;28;1053;-58
2021/10/11 03:40:14;;;;;;;;;;;14.80;99.90;;;;;;2092500;28;1984;-55
2021/10/11 03:41:33;;;;;;;;;;;14.80;99.90;;;;;;2089416;28;1083;-57
2021/10/11 03:42:53;;;;;;;;;;;14.80;99.90;;;;;;2095306;28;1256;-57
2021/10/11 03:44:12;;;;;;;;;;;14.80;99.90;;;;;;2096641;28;1280;-55
2021/10/11 03:45:32;;;;;;;;;;;14.80;99.90;;;;;;2093263;28;1176;-55
2021/10/11 03:46:51;;;;;;;;;;;14.80;99.90;;;;;;2088895;28;1073;-53
2021/10/11 03:48:10;;;;;;;;;;;14.80;99.90;;;;;;2088314;28;1017;-56
2021/10/11 03:49:29;;;;;;;;;;;14.80;99.90;;;;;;2094148;28;1171;-56
2021/10/11 03:50:49;;;;;;;;;;;14.80;99.90;;;;;;2088352;28;1485;-56
2021/10/11 03:52:08;;;;;;;;;;;14.80;99.90;;;;;;2090489;28;1183;-54
2021/10/11 03:53:28;;;;;;;;;;;14.70;99.90;;;;;;2091520;28;1666;-58
2021/10/11 03:54:47;;;;;;;;;;;14.80;99.90;;;;;;2092279;28;1272;-55
2021/10/11 03:56:06;;;;;;;;;;;14.70;99.90;;;;;;2090994;28;1214;-57
2021/10/11 03:57:25;;;;;;;;;;;14.70;99.90;;;;;;2091697;28;1101;-54
2021/10/11 03:58:44;;;;;;;;;;;14.80;99.90;;;;;;2089392;28;1284;-57
2021/10/11 04:00:04;;;;;;;;;;;14.70;99.90;;;;;;2091589;28;1906;-53
2021/10/11 04:01:31;;;;;;;;;;;14.70;99.90;;;;;;2090035;28;1221;-58
2021/10/11 04:02:50;;;;;;;;;;;14.70;99.90;;;;;;2089323;28;1267;-54
2021/10/11 04:04:09;;;;;;;;;;;14.70;99.90;;;;;;2087529;28;1122;-56
2021/10/11 04:05:28;;;;;;;;;;;14.70;99.90;;;;;;2090000;28;1145;-53
2021/10/11 04:06:48;;;;;;;;;;;14.70;99.90;;;;;;2089326;28;1056;-53
2021/10/11 04:08:13;;;;;;;;;;;14.70;99.90;;;;;;2088691;28;1426;-53
2021/10/11 04:09:33;;;;;;;;;;;14.70;99.90;;;;;;2091432;28;1269;-55
2021/10/11 04:11:07;;;;;;;;;;;14.70;99.90;;;;;;2087865;28;1531;-55
2021/10/11 04:12:33;;;;;;;;;;;14.70;99.90;;;;;;2088772;28;1361;-56
2021/10/11 04:13:53;;;;;;;;;;;14.70;99.90;;;;;;2088537;28;1237;-54
2021/10/11 04:15:12;;;;;;;;;;;14.70;99.90;;;;;;2088742;28;1341;-54
2021/10/11 04:16:31;;;;;;;;;;;14.70;99.90;;;;;;2088664;28;1210;-55
2021/10/11 04:17:50;;;;;;;;;;;14.70;99.90;;;;;;2087262;28;1312;-53
2021/10/11 04:19:10;;;;;;;;;;;14.70;99.90;;;;;;2089919;28;1272;-54
2021/10/11 04:20:29;;;;;;;;;;;14.70;99.90;;;;;;2090565;28;1910;-57
2021/10/11 04:21:48;;;;;;;;;;;14.70;99.90;;;;;;2089446;28;1102;-55
2021/10/11 04:23:07;;;;;;;;;;;14.70;99.90;;;;;;2091078;28;1260;-56
2021/10/11 04:24:27;;;;;;;;;;;14.70;99.90;;;;;;2091322;28;1108;-55
2021/10/11 04:25:46;;;;;;;;;;;14.70;99.90;;;;;;2090295;28;1278;-53
2021/10/11 04:27:05;;;;;;;;;;;14.70;99.90;;;;;;2086455;28;1120;-54
2021/10/11 04:28:24;;;;;;;;;;;14.70;99.90;;;;;;2089928;28;1134;-57
2021/10/11 04:29:44;;;;;;;;;;;14.70;99.90;;;;;;2089721;28;1242;-55
2021/10/11 04:31:03;;;;;;;;;;;14.70;99.90;;;;;;2091417;28;1480;-55
2021/10/11 04:32:22;;;;;;;;;;;14.70;99.90;;;;;;2090022;28;1146;-56
2021/10/11 04:33:41;;;;;;;;;;;14.70;99.90;;;;;;2091101;28;1136;-54
2021/10/11 04:35:01;;;;;;;;;;;14.70;99.90;;;;;;2091155;28;1039;-55
2021/10/11 04:36:21;;;;;;;;;;;14.70;99.90;;;;;;2090908;28;1287;-55
2021/10/11 04:37:41;;;;;;;;;;;14.70;99.90;;;;;;2094099;28;1167;-57
2021/10/11 04:39:00;;;;;;;;;;;14.70;99.90;;;;;;2092146;28;1614;-52
2021/10/11 04:40:19;;;;;;;;;;;14.80;99.90;;;;;;2092595;28;1910;-52
2021/10/11 04:41:38;;;;;;;;;;;14.80;99.90;;;;;;2091903;28;1332;-53
2021/10/11 04:42:58;;;;;;;;;;;14.80;99.90;;;;;;2092950;28;1349;-56
2021/10/11 04:44:17;;;;;;;;;;;14.80;99.90;;;;;;2093304;28;1208;-54
2021/10/11 04:45:37;;;;;;;;;;;14.80;99.90;;;;;;2090098;28;1620;-55
2021/10/11 04:46:56;;;;;;;;;;;14.80;99.90;;;;;;2090380;28;1070;-52
2021/10/11 04:48:16;;;;;;;;;;;14.80;99.90;;;;;;2091297;28;1053;-54
2021/10/11 04:49:35;;;;;;;;;;;14.70;99.90;;;;;;2090742;28;1467;-56
2021/10/11 04:50:54;;;;;;;;;;;14.70;99.90;;;;;;2090403;28;2287;-56
2021/10/11 04:52:13;;;;;;;;;;;14.80;99.90;;;;;;2091857;28;1241;-54
2021/10/11 04:53:33;;;;;;;;;;;14.70;99.90;;;;;;2090062;28;1233;-53
2021/10/11 04:54:52;;;;;;;;;;;14.70;99.90;;;;;;2087063;28;1222;-54
2021/10/11 04:56:11;;;;;;;;;;;14.70;99.90;;;;;;2090990;28;1296;-56
2021/10/11 04:57:30;;;;;;;;;;;14.80;99.90;;;;;;2090860;28;1096;-53
2021/10/11 04:58:49;;;;;;;;;;;14.70;99.90;;;;;;2089662;28;1371;-56
2021/10/11 05:00:09;;;;;;;;;;;14.70;99.90;;;;;;2092314;28;1902;-54
2021/10/11 05:01:28;;;;;;;;;;;14.70;99.90;;;;;;2092846;28;1376;-53
2021/10/11 05:02:47;;;;;;;;;;;14.70;99.90;;;;;;2090792;28;1411;-58
2021/10/11 05:04:07;;;;;;;;;;;14.70;99.90;;;;;;2090612;28;1291;-54
2021/10/11 05:05:26;;;;;;;;;;;14.70;99.90;;;;;;2091048;28;1157;-55
2021/10/11 05:06:45;;;;;;;;;;;14.70;99.90;;;;;;2090330;28;1091;-53
2021/10/11 05:08:04;;;;;;;;;;;14.70;99.90;;;;;;2093569;28;1380;-57
2021/10/11 05:09:23;;;;;;;;;;;14.70;99.90;;;;;;2090196;28;1140;-54
2021/10/11 05:10:43;;;;;;;;;;;14.70;99.90;;;;;;2092096;28;1431;-56
2021/10/11 05:12:02;;;;;;;;;;;14.70;99.90;;;;;;2092715;28;888;-54
2021/10/11 05:13:21;;;;;;;;;;;14.70;99.90;;;;;;2086855;28;1334;-53
2021/10/11 05:14:41;;;;;;;;;;;14.70;99.90;;;;;;2094451;28;1080;-56
2021/10/11 05:16:00;;;;;;;;;;;14.70;99.90;;;;;;2094530;28;1135;-55
2021/10/11 05:17:19;;;;;;;;;;;14.70;99.90;;;;;;2089730;28;974;-55
2021/10/11 05:18:38;;;;;;;;;;;14.70;99.90;;;;;;2088996;28;1216;-55
2021/10/11 05:19:58;;;;;;;;;;;14.70;99.90;;;;;;2095268;28;1975;-56
2021/10/11 05:21:17;;;;;;;;;;;14.70;99.90;;;;;;2090554;28;1257;-53
2021/10/11 05:22:36;;;;;;;;;;;14.70;99.90;;;;;;2091979;28;1953;-55
2021/10/11 05:23:56;;;;;;;;;;;14.70;99.90;;;;;;2090951;28;1228;-54
2021/10/11 05:25:15;;;;;;;;;;;14.70;99.90;;;;;;2090191;28;1243;-52
2021/10/11 05:26:35;;;;;;;;;;;14.70;99.90;;;;;;2089696;28;1107;-53
2021/10/11 05:27:54;;;;;;;;;;;14.70;99.90;;;;;;2091749;28;1239;-55
2021/10/11 05:29:13;;;;;;;;;;;14.70;99.90;;;;;;2089875;28;1384;-54
2021/10/11 05:30:32;;;;;;;;;;;14.70;99.90;;;;;;2089630;28;1837;-55
2021/10/11 05:31:52;;;;;;;;;;;14.70;99.90;;;;;;2089648;28;1694;-53
2021/10/11 05:33:11;;;;;;;;;;;14.70;99.90;;;;;;2085743;28;1132;-52
2021/10/11 05:34:30;;;;;;;;;;;14.70;99.90;;;;;;2086121;28;1076;-56
2021/10/11 05:35:52;;;;;;;;;;;14.70;99.90;;;;;;2087241;28;1134;-54
2021/10/11 05:37:11;;;;;;;;;;;14.80;99.90;;;;;;2089792;28;1223;-56
2021/10/11 05:38:31;;;;;;;;;;;14.80;99.90;;;;;;2091308;28;1227;-53
2021/10/11 05:39:50;;;;;;;;;;;14.80;99.90;;;;;;2082305;28;1901;-56
2021/10/11 05:41:10;;;;;;;;;;;14.90;99.90;;;;;;2086657;28;1471;-54
2021/10/11 05:42:29;;;;;;;;;;;14.90;99.90;;;;;;2090917;28;1675;-53
2021/10/11 05:43:48;;;;;;;;;;;14.90;99.90;;;;;;2086586;28;1254;-53
2021/10/11 05:45:08;;;;;;;;;;;15.00;99.90;;;;;;2090396;28;1322;-58
2021/10/11 05:46:27;;;;;;;;;;;15.10;99.90;;;;;;2090015;28;1412;-57
2021/10/11 05:47:46;;;;;;;;;;;15.10;99.90;;;;;;2090739;28;1268;-52
2021/10/11 05:49:05;;;;;;;;;;;15.10;99.90;;;;;;2089226;28;1291;-56
2021/10/11 05:50:24;;;;;;;;;;;15.20;99.90;;;;;;2086915;28;1532;-54
2021/10/11 05:51:43;;;;;;;;;;;15.30;99.90;;;;;;2089641;28;1145;-53
2021/10/11 05:53:03;;;;;;;;;;;15.30;99.90;;;;;;2090198;28;1345;-57
2021/10/11 05:54:22;;;;;;;;;;;15.40;99.90;;;;;;2088848;28;1898;-53
2021/10/11 05:55:41;;;;;;;;;;;15.50;99.90;;;;;;2090259;28;1102;-56
2021/10/11 05:57:01;;;;;;;;;;;15.60;99.90;;;;;;2089511;28;1382;-55
2021/10/11 05:58:20;;;;;;;;;;;15.70;99.90;;;;;;2093158;28;1229;-52
2021/10/11 05:59:39;;;;;;;;;;;15.70;99.90;;;;;;2089430;28;1910;-52
2021/10/11 06:00:59;;;;;;;;;;;15.80;99.90;;;;;;2090398;28;1490;-54
2021/10/11 06:02:18;;;;;;;;;;;15.90;99.90;;;;;;2090910;28;1046;-53
2021/10/11 06:03:37;;;;;;;;;;;15.90;99.90;;;;;;2090387;28;1018;-53
2021/10/11 06:04:57;;;;;;;;;;;16.00;99.90;;;;;;2092812;28;1038;-53
2021/10/11 06:06:15;;;;;;;;;;;16.00;99.90;;;;;;2093894;28;950;-58
2021/10/11 06:07:35;;;;;;;;;;;16.00;99.90;;;;;;2092099;28;1190;-54
2021/10/11 06:08:54;;;;;;;;;;;16.10;99.90;;;;;;2089636;28;961;-55
2021/10/11 06:10:13;;;;;;;;;;;16.10;99.90;;;;;;2091439;28;1108;-52
2021/10/11 06:11:32;;;;;;;;;;;16.20;99.90;;;;;;2089949;28;1249;-56
2021/10/11 06:12:51;;;;;;;;;;;16.20;99.90;;;;;;2086770;28;1289;-54
2021/10/11 06:14:11;;;;;;;;;;;16.20;99.90;;;;;;2089539;28;1381;-56
2021/10/11 06:15:30;;;;;;;;;;;16.20;99.80;;;;;;2089817;28;1086;-55
2021/10/11 06:16:49;;;;;;;;;;;16.30;99.80;;;;;;2089310;28;1122;-53
2021/10/11 06:18:08;;;;;;;;;;;16.30;99.70;;;;;;2093942;28;995;-53
2021/10/11 06:19:28;;;;;;;;;;;16.30;99.60;;;;;;2092601;28;1071;-55
2021/10/11 06:20:47;;;;;;;;;;;16.30;99.60;;;;;;2081262;28;1412;-54
2021/10/11 06:22:06;;;;;;;;;;;16.30;99.70;;;;;;2083687;28;1152;-54
2021/10/11 06:23:26;;;;;;;;;;;16.30;99.70;;;;;;2090233;28;1064;-54
2021/10/11 06:24:45;;;;;;;;;;;16.20;99.70;;;;;;2091204;28;1418;-56
2021/10/11 06:26:04;;;;;;;;;;;16.30;99.80;;;;;;2090173;28;1357;-54
2021/10/11 06:27:23;;;;;;;;;;;16.20;99.90;;;;;;2090423;28;1101;-53
2021/10/11 06:28:42;;;;;;;;;;;16.20;99.90;;;;;;2090826;28;1236;-54
2021/10/11 06:30:02;;;;;;;;;;;16.20;99.90;;;;;;2090756;28;1320;-55
2021/10/11 06:31:21;;;;;;;;;;;16.20;99.90;;;;;;2090453;28;1366;-55
2021/10/11 06:32:40;;;;;;;;;;;16.30;99.90;;;;;;2091770;28;1044;-53
2021/10/11 06:33:59;;;;;;;;;;;16.30;99.90;;;;;;2090535;28;1138;-54
2021/10/11 06:35:19;;;;;;;;;;;16.30;99.90;;;;;;2089902;28;1213;-54
2021/10/11 06:36:38;;;;;;;;;;;16.30;99.90;;;;;;2089722;28;1131;-56
2021/10/11 06:37:57;;;;;;;;;;;16.30;99.90;;;;;;2094279;28;1109;-54
2021/10/11 06:39:16;;;;;;;;;;;16.40;99.90;;;;;;2090391;28;1071;-56
2021/10/11 06:40:36;;;;;;;;;;;16.40;99.80;;;;;;2089674;28;1902;-54
2021/10/11 06:41:55;;;;;;;;;;;16.40;99.70;;;;;;2090291;28;1380;-55
2021/10/11 06:43:14;;;;;;;;;;;16.40;99.60;;;;;;2081663;28;1130;-55
2021/10/11 06:44:33;;;;;;;;;;;16.40;99.50;;;;;;2087216;28;1240;-55
2021/10/11 06:45:53;;;;;;;;;;;16.50;99.40;;;;;;2090374;28;954;-53
2021/10/11 06:47:12;;;;;;;;;;;16.40;99.30;;;;;;2091816;28;1023;-53
2021/10/11 06:48:31;;;;;;;;;;;16.50;99.70;;;;;;2092074;28;1057;-57
2021/10/11 06:49:50;;;;;;;;;;;16.50;99.40;;;;;;2079137;28;1084;-55
2021/10/11 06:51:09;;;;;;;;;;;16.50;99.40;;;;;;2087247;28;1356;-53
2021/10/11 06:52:29;;;;;;;;;;;16.40;99.30;;;;;;2090646;28;1301;-53
2021/10/11 06:53:48;;;;;;;;;;;16.50;99.30;;;;;;2088419;28;1018;-54
2021/10/11 06:55:08;;;;;;;;;;;16.50;99.40;;;;;;2088709;28;1144;-53
2021/10/11 06:56:27;;;;;;;;;;;16.50;99.40;;;;;;2080688;28;1221;-54
2021/10/11 06:57:46;;;;;;;;;;;16.50;99.40;;;;;;2086985;28;1427;-54
2021/10/11 06:59:05;;;;;;;;;;;16.40;99.40;;;;;;2091526;28;1173;-55
2021/10/11 07:00:24;;;;;;;;;;;16.50;99.50;;;;;;2089635;28;1902;-52
2021/10/11 07:01:44;;;;;;;;;;;16.40;99.50;;;;;;2090403;28;1056;-53
2021/10/11 07:03:05;;;;;;;;;;;16.40;99.60;;;;;;2090094;28;1119;-53
2021/10/11 07:04:24;;;;;;;;;;;16.50;99.70;;;;;;2091837;28;930;-53
2021/10/11 07:05:43;;;;;;;;;;;16.40;99.70;;;;;;2090398;28;1214;-56
2021/10/11 07:07:03;;;;;;;;;;;16.50;99.90;;;;;;2089803;28;1179;-56
2021/10/11 07:08:23;;;;;;;;;;;16.40;99.80;;;;;;2092343;28;1139;-54
2021/10/11 07:09:42;;;;;;;;;;;16.40;99.90;;;;;;2090369;28;1117;-56
2021/10/11 07:11:01;;;;;;;;;;;16.40;99.90;;;;;;2089677;28;1392;-55
2021/10/11 07:12:20;;;;;;;;;;;16.40;99.90;;;;;;2090245;28;1048;-54
2021/10/11 07:13:39;;;;;;;;;;;16.40;99.90;;;;;;2090601;28;1144;-53
2021/10/11 07:14:59;;;;;;;;;;;16.40;99.90;;;;;;2090784;28;1214;-54
2021/10/11 07:16:18;;;;;;;;;;;16.40;99.90;;;;;;2090633;28;1079;-53
2021/10/11 07:17:37;;;;;;;;;;;16.40;99.90;;;;;;2091016;28;1026;-54
2021/10/11 07:18:56;;;;;;;;;;;16.40;99.90;;;;;;2090461;28;1165;-56
2021/10/11 07:20:16;;;;;;;;;;;16.40;99.90;;;;;;2092112;28;1918;-54
2021/10/11 07:21:34;;;;;;;;;;;16.40;99.90;;;;;;2091462;28;1469;-53
2021/10/11 07:22:53;;;;;;;;;;;16.40;99.90;;;;;;2091839;28;1375;-54
2021/10/11 07:24:15;;;;;;;;;;;16.50;99.90;;;;;;2091975;28;1225;-56
2021/10/11 07:25:34;;;;;;;;;;;16.40;99.90;;;;;;2090385;28;1112;-54
2021/10/11 07:26:53;;;;;;;;;;;16.40;99.90;;;;;;2089302;28;1257;-52
2021/10/11 07:28:13;;;;;;;;;;;16.50;99.90;;;;;;2090382;28;1615;-54
2021/10/11 07:29:32;;;;;;;;;;;16.40;99.90;;;;;;2092064;28;1238;-54
2021/10/11 07:30:52;;;;;;;;;;;16.40;99.90;;;;;;2090549;28;1416;-53
2021/10/11 07:32:11;;;;;;;;;;;16.40;99.90;;;;;;2093396;28;1409;-58
2021/10/11 07:33:30;;;;;;;;;;;16.50;99.90;;;;;;2081862;28;1064;-52
2021/10/11 07:34:49;;;;;;;;;;;16.50;99.90;;;;;;2086434;28;1216;-54
2021/10/11 07:36:08;;;;;;;;;;;16.50;99.90;;;;;;2090014;28;1244;-54
2021/10/11 07:37:27;;;;;;;;;;;16.50;99.90;;;;;;2090411;28;1377;-56
2021/10/11 07:38:46;;;;;;;;;;;16.40;99.90;;;;;;2090383;28;1486;-54
2021/10/11 07:40:06;;;;;;;;;;;16.40;99.90;;;;;;2089158;28;1906;-55
2021/10/11 07:41:25;;;;;;;;;;;16.40;99.90;;;;;;2092366;28;913;-57
2021/10/11 07:42:44;;;;;;;;;;;16.40;99.90;;;;;;2093388;28;1266;-54
2021/10/11 07:44:04;;;;;;;;;;;16.40;99.90;;;;;;2089181;28;1131;-55
2021/10/11 07:45:23;;;;;;;;;;;16.40;99.90;;;;;;2089356;28;1117;-56
2021/10/11 07:46:42;;;;;;;;;;;16.40;99.90;;;;;;2090057;28;1429;-57
2021/10/11 07:48:01;;;;;;;;;;;16.30;99.90;;;;;;2090737;28;1083;-57
2021/10/11 07:49:21;;;;;;;;;;;16.30;99.90;;;;;;2093088;28;1255;-57